MAPA DE AEROPUERTO

INFORMACIÓN METAR y TAF

METAR FOR LEST
ADDS - METARS form results

(0456 UTC 20 September 2021)
Data provider http://aviationweather.gov/metar/data/
 
METAR text: LEST 200430Z 04007KT 360V100 9000 VCFG BKN003 12/11 Q1026 NOSIG
Conditions at: LEST (SANTIAGO/LABACOL, ES) observed 0430 UTC 20 September 2021
Temperature: 12.0°C (54°F)
Dewpoint: 11.0°C (52°F) [RH = 94%]
Pressure (altimeter): 30.30 inches Hg (1026.0 mb)
Winds: from the NE (40 degrees) at 8 MPH (7 knots; 3.6 m/s)
Visibility: 6 miles ( 9 km)
Ceiling: 300 feet AGL
Clouds: broken clouds at 300 feet AGL
Weather: VCFG  (fog in vicinity)

METAR text: LEST 200409Z 06004KT 020V150 8000 VCFG BKN002 12/11 Q1026 NOSIG
Conditions at: LEST (SANTIAGO/LABACOL, ES) observed 0409 UTC 20 September 2021
Temperature: 12.0°C (54°F)
Dewpoint: 11.0°C (52°F) [RH = 94%]
Pressure (altimeter): 30.30 inches Hg (1026.0 mb)
Winds: from the ENE (60 degrees) at 5 MPH (4 knots; 2.1 m/s)
Visibility: 5 miles ( 8 km)
Ceiling: 200 feet AGL
Clouds: broken clouds at 200 feet AGL
Weather: VCFG  (fog in vicinity)

METAR text: LEST 200400Z 06004KT 020V150 8000 VCFG BKN002 12/11 Q1026 NOSIG
Conditions at: LEST (SANTIAGO/LABACOL, ES) observed 0400 UTC 20 September 2021
Temperature: 12.0°C (54°F)
Dewpoint: 11.0°C (52°F) [RH = 94%]
Pressure (altimeter): 30.30 inches Hg (1026.0 mb)
Winds: from the ENE (60 degrees) at 5 MPH (4 knots; 2.1 m/s)
Visibility: 5 miles ( 8 km)
Ceiling: 200 feet AGL
Clouds: broken clouds at 200 feet AGL
Weather: VCFG  (fog in vicinity)

Forecast for: LEST (SANTIAGO/LABACOL, ES)
Text: TAF LEST 192300Z 2000/2024 01009KT 9999 FEW020 SCT030 TX19/2012Z TN11/2006Z
Forecast period: 0000 UTC 20 September 2021 to 0000 UTC 21 September 2021
Forecast type: FROM: standard forecast or significant change
Winds: from the N (10 degrees) at 10 MPH (9 knots; 4.6 m/s)
Visibility: 6 or more miles (10+ km)
Ceiling: at least 12,000 feet AGL
Clouds: few clouds at 2000 feet AGL
scattered clouds at 3000 feet AGL
Weather: no significant weather forecast for this period
Text: PROB40
Forecast period: 0000 to 0800 UTC 20 September 2021
Forecast type: TEMPORARY: The following changes expected for less than half the time period
Visibility: 1.86 miles (2.99 km)
Ceiling: 1000 feet AGL
Clouds: broken clouds at 1000 feet AGL
Weather: -RA BR  (light rain, mist)
Text: TEMPO 2000/2008 3000 -RA BR BKN010
Forecast period: 0000 to 0700 UTC 20 September 2021
Forecast type: TEMPORARY: The following changes expected for less than half the time period
Visibility: 0.50 miles (0.80 km)
Ceiling: 500 feet AGL
Clouds: broken clouds at 500 feet AGL
Weather: BCFG  (patches of fog)
Text: PROB40
Forecast period: 0000 to 0700 UTC 20 September 2021
Forecast type: TEMPORARY: The following changes expected for less than half the time period
Visibility: 0.22 miles (0.35 km)
Ceiling: 100 feet AGL
Clouds: broken clouds at 100 feet AGL
Weather: BCFG  (patches of fog)